createdAt,value
2022-12-25T00:02:07.190Z,8.80
2022-12-25T00:04:37.094Z,8.90
2022-12-25T00:07:07.029Z,8.80
2022-12-25T00:09:36.949Z,8.80
2022-12-25T00:12:06.947Z,8.80
2022-12-25T00:14:37.469Z,8.80
2022-12-25T00:17:07.426Z,8.80
2022-12-25T00:19:37.351Z,8.80
2022-12-25T00:22:07.294Z,8.80
2022-12-25T00:24:37.304Z,8.70
2022-12-25T00:27:07.252Z,8.70
2022-12-25T00:29:37.259Z,8.70
2022-12-25T00:32:07.287Z,8.70
2022-12-25T00:34:37.306Z,8.70
2022-12-25T00:37:07.664Z,8.80
2022-12-25T00:39:37.833Z,8.70
2022-12-25T00:42:23.106Z,8.70
2022-12-25T00:44:53.637Z,8.70
2022-12-25T00:47:23.568Z,8.70
2022-12-25T00:49:53.566Z,8.70
2022-12-25T00:52:24.276Z,8.70
2022-12-25T00:54:54.128Z,8.60
2022-12-25T00:57:24.043Z,8.70
2022-12-25T00:59:53.993Z,8.60
2022-12-25T01:02:25.600Z,8.60
2022-12-25T01:04:59.341Z,8.60
2022-12-25T01:07:29.635Z,8.50
2022-12-25T01:10:17.130Z,8.50
2022-12-25T01:12:47.018Z,8.50
2022-12-25T01:15:17.234Z,8.50
2022-12-25T01:17:48.323Z,8.60
2022-12-25T01:20:20.031Z,8.50
2022-12-25T01:22:50.062Z,8.50
2022-12-25T01:25:19.977Z,8.50
2022-12-25T01:27:49.889Z,8.50
2022-12-25T01:30:19.960Z,8.50
2022-12-25T01:32:49.869Z,8.50
2022-12-25T01:35:19.807Z,8.50
2022-12-25T01:37:49.826Z,8.50
2022-12-25T01:40:19.924Z,8.60
2022-12-25T01:42:49.854Z,8.60
2022-12-25T01:45:35.637Z,8.70
2022-12-25T01:48:13.952Z,8.80
2022-12-25T01:50:48.184Z,8.80
2022-12-25T01:53:18.135Z,8.80
2022-12-25T01:55:51.305Z,8.90
2022-12-25T01:58:21.397Z,8.90
2022-12-25T02:00:52.928Z,8.90
2022-12-25T02:03:23.709Z,9.00
2022-12-25T02:05:53.377Z,9.10
2022-12-25T02:08:24.417Z,9.20
2022-12-25T02:10:54.450Z,9.30
2022-12-25T02:13:24.697Z,9.40
2022-12-25T02:16:11.480Z,9.60
2022-12-25T02:19:00.397Z,9.60
2022-12-25T02:21:53.572Z,9.70
2022-12-25T02:24:52.323Z,9.70
2022-12-25T02:27:52.435Z,9.90
2022-12-25T02:30:23.836Z,10.00
2022-12-25T02:33:12.087Z,10.10
2022-12-25T02:35:43.341Z,10.20
2022-12-25T02:38:23.800Z,10.30
2022-12-25T02:40:59.551Z,10.40
2022-12-25T02:43:52.691Z,10.50
2022-12-25T02:46:43.020Z,10.50
2022-12-25T02:49:33.065Z,10.60
2022-12-25T02:52:23.398Z,10.70
2022-12-25T02:55:13.415Z,10.70
2022-12-25T02:58:03.628Z,10.80
2022-12-25T03:00:53.757Z,10.90
2022-12-25T03:03:43.939Z,11.00
2022-12-25T03:06:34.042Z,11.10
2022-12-25T03:09:24.280Z,11.10
2022-12-25T03:12:10.637Z,11.30
2022-12-25T03:14:54.613Z,11.40
2022-12-25T03:17:24.751Z,11.40
2022-12-25T03:20:05.068Z,11.60
2022-12-25T03:22:45.032Z,11.70
2022-12-25T03:25:25.305Z,11.80
2022-12-25T03:27:57.921Z,11.90
2022-12-25T03:30:55.524Z,11.90
2022-12-25T03:34:05.613Z,12.00
2022-12-25T03:37:17.771Z,12.00
2022-12-25T03:40:24.609Z,12.20
2022-12-25T03:43:16.202Z,12.30
2022-12-25T03:46:06.339Z,12.40
2022-12-25T03:48:56.513Z,12.50
2022-12-25T03:51:46.638Z,12.50
2022-12-25T03:54:36.945Z,12.60
2022-12-25T03:57:16.985Z,12.70
2022-12-25T03:59:57.225Z,12.70
2022-12-25T04:02:37.483Z,12.70
2022-12-25T04:05:17.533Z,12.90
2022-12-25T04:07:57.657Z,12.90
2022-12-25T04:10:37.851Z,12.90
2022-12-25T04:13:17.991Z,13.20
2022-12-25T04:15:58.274Z,13.30
2022-12-25T04:18:38.312Z,13.50
2022-12-25T04:21:18.605Z,13.60
2022-12-25T04:23:58.609Z,13.70
2022-12-25T04:26:38.885Z,13.70
2022-12-25T04:29:18.925Z,13.80
2022-12-25T04:31:59.203Z,13.90
2022-12-25T04:34:39.256Z,14.00
2022-12-25T04:37:09.323Z,14.10
2022-12-25T04:39:39.293Z,14.20
2022-12-25T04:42:09.445Z,14.30
2022-12-25T04:44:39.467Z,14.30
2022-12-25T04:47:11.536Z,14.30
2022-12-25T04:49:42.169Z,14.50
2022-12-25T04:52:12.082Z,14.50
2022-12-25T04:54:42.082Z,14.70
2022-12-25T04:57:12.169Z,14.80
2022-12-25T04:59:42.118Z,14.80
2022-12-25T05:02:12.035Z,14.90
2022-12-25T05:04:42.051Z,14.90
2022-12-25T05:07:11.957Z,14.90
2022-12-25T05:09:43.458Z,14.90
2022-12-25T05:12:14.841Z,15.00
2022-12-25T05:14:44.774Z,15.10
2022-12-25T05:17:14.776Z,15.20
2022-12-25T05:19:45.499Z,15.20
2022-12-25T05:22:15.528Z,15.40
2022-12-25T05:24:45.542Z,15.40
2022-12-25T05:27:16.493Z,15.50
2022-12-25T05:29:46.409Z,15.60
2022-12-25T05:32:16.616Z,15.70
2022-12-25T05:34:46.656Z,15.60
2022-12-25T05:37:16.764Z,15.70
2022-12-25T05:39:46.660Z,15.80
2022-12-25T05:42:16.521Z,16.00
2022-12-25T05:44:46.485Z,16.00
2022-12-25T05:47:16.476Z,16.00
2022-12-25T05:49:46.399Z,16.10
2022-12-25T05:52:16.423Z,16.20
2022-12-25T05:54:46.459Z,16.20
2022-12-25T05:57:16.414Z,16.30
2022-12-25T05:59:46.370Z,16.40
2022-12-25T06:02:16.529Z,16.60
2022-12-25T06:04:46.539Z,16.60
2022-12-25T06:07:16.542Z,16.60
2022-12-25T06:09:46.536Z,16.60
2022-12-25T06:12:16.588Z,16.70
2022-12-25T06:14:46.488Z,16.80
2022-12-25T06:17:16.409Z,17.00
2022-12-25T06:19:46.520Z,16.90
2022-12-25T06:22:19.395Z,16.90
2022-12-25T06:24:49.545Z,16.90
2022-12-25T06:27:19.460Z,17.10
2022-12-25T06:29:49.429Z,17.10
2022-12-25T06:32:19.501Z,17.10
2022-12-25T06:34:49.443Z,17.30
2022-12-25T06:37:19.427Z,17.40
2022-12-25T06:39:50.312Z,17.50
2022-12-25T06:42:20.229Z,17.50
2022-12-25T06:44:50.069Z,17.50
2022-12-25T06:47:20.307Z,17.50
2022-12-25T06:49:50.177Z,17.60
2022-12-25T06:52:20.040Z,17.60
2022-12-25T06:54:50.639Z,17.70
2022-12-25T06:57:20.939Z,17.70
2022-12-25T06:59:54.932Z,17.80
2022-12-25T07:02:27.442Z,17.80
2022-12-25T07:04:57.735Z,17.80
2022-12-25T07:07:27.791Z,17.90
2022-12-25T07:09:57.761Z,17.90
2022-12-25T07:12:27.711Z,17.90
2022-12-25T07:14:58.659Z,17.90
2022-12-25T07:17:28.556Z,17.90
2022-12-25T07:19:58.934Z,17.80
2022-12-25T07:22:30.667Z,17.80
2022-12-25T07:25:00.701Z,18.00
2022-12-25T07:27:30.595Z,18.00
2022-12-25T07:30:00.527Z,18.10
2022-12-25T07:32:33.626Z,18.10
2022-12-25T07:35:03.446Z,18.10
2022-12-25T07:37:33.300Z,18.10
2022-12-25T07:40:03.176Z,18.10
2022-12-25T07:42:34.395Z,18.10
2022-12-25T07:45:05.485Z,18.30
2022-12-25T07:47:35.423Z,18.20
2022-12-25T07:50:05.572Z,18.20
2022-12-25T07:52:41.409Z,18.20
2022-12-25T07:55:13.767Z,18.20
2022-12-25T07:57:43.800Z,18.30
2022-12-25T08:00:14.339Z,18.40
2022-12-25T08:02:44.862Z,18.40
2022-12-25T08:05:15.968Z,18.40
2022-12-25T08:07:45.953Z,18.40
2022-12-25T08:10:15.929Z,18.50
2022-12-25T08:12:45.842Z,18.50
2022-12-25T08:15:15.817Z,18.50
2022-12-25T08:17:46.017Z,18.40
2022-12-25T08:20:16.095Z,18.40
2022-12-25T08:22:46.003Z,18.40
2022-12-25T08:25:17.651Z,18.50
2022-12-25T08:27:47.616Z,18.50
2022-12-25T08:30:17.739Z,18.50
2022-12-25T08:32:47.769Z,18.50
2022-12-25T08:35:17.735Z,18.60
2022-12-25T08:37:47.641Z,18.60
2022-12-25T08:40:17.837Z,18.50
2022-12-25T08:42:48.155Z,18.60
2022-12-25T08:45:18.118Z,18.60
2022-12-25T08:47:48.522Z,18.50
2022-12-25T08:50:18.531Z,18.50
2022-12-25T08:52:48.533Z,18.50
2022-12-25T08:55:18.552Z,18.40
2022-12-25T08:57:48.403Z,18.50
2022-12-25T09:00:18.935Z,18.40
2022-12-25T09:02:48.964Z,18.40
2022-12-25T09:05:19.000Z,18.40
2022-12-25T09:07:48.969Z,18.40
2022-12-25T09:10:18.979Z,18.30
2022-12-25T09:12:48.880Z,18.30
2022-12-25T09:15:19.004Z,18.30
2022-12-25T09:17:48.865Z,18.30
2022-12-25T09:20:18.945Z,18.30
2022-12-25T09:22:49.000Z,18.20
2022-12-25T09:25:18.915Z,18.10
2022-12-25T09:27:48.797Z,18.20
2022-12-25T09:30:19.489Z,18.10
2022-12-25T09:32:49.450Z,18.10
2022-12-25T09:35:21.427Z,18.20
2022-12-25T09:37:51.372Z,18.10
2022-12-25T09:40:23.723Z,18.10
2022-12-25T09:42:56.827Z,18.10
2022-12-25T09:45:38.366Z,18.20
2022-12-25T09:48:08.464Z,18.10
2022-12-25T09:51:02.933Z,18.00
2022-12-25T09:53:41.716Z,17.90
2022-12-25T09:56:16.579Z,18.00
2022-12-25T09:58:46.755Z,17.90
2022-12-25T10:01:41.479Z,17.90
2022-12-25T10:04:37.512Z,17.90
2022-12-25T10:07:39.916Z,17.90
2022-12-25T10:10:39.819Z,17.80
2022-12-25T10:13:36.219Z,17.80
2022-12-25T10:16:24.422Z,17.70
2022-12-25T10:19:12.874Z,17.70
2022-12-25T10:21:43.234Z,17.70
2022-12-25T10:24:29.946Z,17.70
2022-12-25T10:27:00.292Z,17.60
2022-12-25T10:29:32.782Z,17.60
2022-12-25T10:32:03.089Z,17.50
2022-12-25T10:34:33.033Z,17.40
2022-12-25T10:37:03.979Z,17.40
2022-12-25T10:39:34.065Z,17.40
2022-12-25T10:42:31.736Z,17.30
2022-12-25T10:45:07.418Z,17.20
2022-12-25T10:47:43.970Z,17.10
2022-12-25T10:50:26.246Z,17.10
2022-12-25T10:53:06.913Z,17.10
2022-12-25T10:55:36.861Z,16.90
2022-12-25T10:58:07.989Z,16.80
2022-12-25T11:00:37.831Z,16.80
2022-12-25T11:03:07.960Z,16.70
2022-12-25T11:05:38.555Z,16.70
2022-12-25T11:08:20.801Z,16.60
2022-12-25T11:11:08.919Z,16.50
2022-12-25T11:13:49.247Z,16.40
2022-12-25T11:16:37.799Z,16.40
2022-12-25T11:19:27.641Z,16.30
2022-12-25T11:22:01.800Z,16.20
2022-12-25T11:24:34.047Z,16.10
2022-12-25T11:27:08.210Z,16.10
2022-12-25T11:30:00.945Z,15.90
2022-12-25T11:32:48.612Z,15.90
2022-12-25T11:35:20.726Z,15.90
2022-12-25T11:37:54.792Z,15.80
2022-12-25T11:40:49.021Z,15.70
2022-12-25T11:43:32.072Z,15.70
2022-12-25T11:46:18.888Z,15.60
2022-12-25T11:48:57.781Z,15.50
2022-12-25T11:51:32.815Z,15.50
2022-12-25T11:54:10.635Z,15.50
2022-12-25T11:56:40.940Z,15.40
2022-12-25T11:59:29.803Z,15.40
2022-12-25T12:02:24.963Z,15.30
2022-12-25T12:05:06.574Z,15.20
2022-12-25T12:07:39.756Z,15.20
2022-12-25T12:10:21.378Z,15.20
2022-12-25T12:13:28.737Z,15.20
2022-12-25T12:16:00.262Z,15.10
2022-12-25T12:18:34.829Z,15.10
2022-12-25T12:21:26.461Z,15.00
2022-12-25T12:24:14.585Z,15.00
2022-12-25T12:26:48.420Z,15.00
2022-12-25T12:29:30.379Z,14.90
2022-12-25T12:32:04.912Z,14.90
2022-12-25T12:34:45.600Z,14.90
2022-12-25T12:37:24.782Z,14.90
2022-12-25T12:39:56.923Z,14.90
2022-12-25T12:42:31.556Z,14.90
2022-12-25T12:45:11.449Z,14.90
2022-12-25T12:47:45.351Z,14.80
2022-12-25T12:50:45.322Z,14.80
2022-12-25T12:53:33.841Z,14.80
2022-12-25T12:56:22.098Z,14.70
2022-12-25T12:58:53.259Z,14.70
2022-12-25T13:01:46.277Z,14.60
2022-12-25T13:04:34.720Z,14.60
2022-12-25T13:07:45.513Z,14.50
2022-12-25T13:10:30.547Z,14.50
2022-12-25T13:13:25.216Z,14.50
2022-12-25T13:15:57.653Z,14.40
2022-12-25T13:18:27.593Z,14.40
2022-12-25T13:21:01.368Z,14.40
2022-12-25T13:23:40.765Z,14.40
2022-12-25T13:26:18.784Z,14.40
2022-12-25T13:28:49.732Z,14.30
2022-12-25T13:31:29.762Z,14.30
2022-12-25T13:34:21.037Z,14.30
2022-12-25T13:36:51.472Z,14.20
2022-12-25T13:39:21.778Z,14.20
2022-12-25T13:42:11.839Z,14.20
2022-12-25T13:44:54.006Z,14.10
2022-12-25T13:47:32.016Z,14.10
2022-12-25T13:50:15.507Z,14.20
2022-12-25T13:52:46.120Z,14.10
2022-12-25T13:55:16.875Z,14.10
2022-12-25T13:58:05.917Z,14.00
2022-12-25T14:00:47.545Z,13.90
2022-12-25T14:03:47.133Z,13.80
2022-12-25T14:06:35.545Z,13.80
2022-12-25T14:09:06.367Z,13.70
2022-12-25T14:11:37.184Z,13.70
2022-12-25T14:14:27.687Z,13.60
2022-12-25T14:17:00.590Z,13.50
2022-12-25T14:19:33.653Z,13.50
2022-12-25T14:22:14.044Z,13.50
2022-12-25T14:24:44.099Z,13.50
2022-12-25T14:27:28.693Z,13.50
2022-12-25T14:30:01.093Z,13.40
2022-12-25T14:32:34.358Z,13.40
2022-12-25T14:35:06.172Z,13.40
2022-12-25T14:37:38.593Z,13.40
2022-12-25T14:40:26.511Z,13.40
2022-12-25T14:43:02.456Z,13.40
2022-12-25T14:45:37.535Z,13.40
2022-12-25T14:48:24.754Z,13.40
2022-12-25T14:51:05.227Z,13.30
2022-12-25T14:53:56.350Z,13.30
2022-12-25T14:56:28.295Z,13.30
2022-12-25T14:59:00.600Z,13.20
2022-12-25T15:01:46.510Z,13.20
2022-12-25T15:04:19.858Z,13.20
2022-12-25T15:07:12.069Z,13.10
2022-12-25T15:09:42.287Z,13.10
2022-12-25T15:12:12.233Z,13.00
2022-12-25T15:14:42.160Z,13.00
2022-12-25T15:17:26.174Z,12.90
2022-12-25T15:19:59.908Z,12.80
2022-12-25T15:22:47.697Z,12.80
2022-12-25T15:25:22.185Z,12.80
2022-12-25T15:27:52.248Z,12.70
2022-12-25T15:30:22.212Z,12.80
2022-12-25T15:32:52.243Z,12.70
2022-12-25T15:35:24.190Z,12.70
2022-12-25T15:37:54.138Z,12.60
2022-12-25T15:40:24.098Z,12.60
2022-12-25T15:42:56.336Z,12.70
2022-12-25T15:45:29.344Z,12.60
2022-12-25T15:48:00.185Z,12.60
2022-12-25T15:50:30.981Z,12.50
2022-12-25T15:53:02.227Z,12.50
2022-12-25T15:55:32.155Z,12.50
2022-12-25T15:58:02.167Z,12.50
2022-12-25T16:00:32.080Z,12.40
2022-12-25T16:03:02.275Z,12.40
2022-12-25T16:05:32.434Z,12.40
2022-12-25T16:08:02.532Z,12.40
2022-12-25T16:10:38.438Z,12.40
2022-12-25T16:13:09.153Z,12.30
2022-12-25T16:15:40.282Z,12.40
2022-12-25T16:18:12.840Z,12.40
2022-12-25T16:20:43.500Z,12.40
2022-12-25T16:23:14.631Z,12.40
2022-12-25T16:25:44.575Z,12.40
2022-12-25T16:28:14.698Z,12.40
2022-12-25T16:30:45.356Z,12.40
2022-12-25T16:33:15.278Z,12.30
2022-12-25T16:35:45.915Z,12.20
2022-12-25T16:38:15.274Z,12.20
2022-12-25T16:40:45.694Z,12.00
2022-12-25T16:43:18.919Z,11.90
2022-12-25T16:45:54.236Z,11.80
2022-12-25T16:48:25.096Z,11.80
2022-12-25T16:50:55.318Z,11.70
2022-12-25T16:53:25.754Z,11.70
2022-12-25T16:56:06.480Z,11.70
2022-12-25T16:58:36.570Z,11.80
2022-12-25T17:01:10.877Z,11.70
2022-12-25T17:03:41.585Z,11.70
2022-12-25T17:06:24.878Z,11.70
2022-12-25T17:08:58.260Z,11.70
2022-12-25T17:11:31.315Z,11.70
2022-12-25T17:14:04.210Z,11.60
2022-12-25T17:16:36.666Z,11.60
2022-12-25T17:19:11.964Z,11.60
2022-12-25T17:21:42.208Z,11.50
2022-12-25T17:24:12.450Z,11.50
2022-12-25T17:26:43.321Z,11.50
2022-12-25T17:29:21.407Z,11.40
2022-12-25T17:31:53.053Z,11.40
2022-12-25T17:34:23.866Z,11.40
2022-12-25T17:36:53.225Z,11.40
2022-12-25T17:39:23.248Z,11.40
2022-12-25T17:41:53.531Z,11.40
2022-12-25T17:44:23.795Z,11.40
2022-12-25T17:46:53.867Z,11.40
2022-12-25T17:49:25.093Z,11.30
2022-12-25T17:51:56.641Z,11.30
2022-12-25T17:54:27.106Z,11.30
2022-12-25T17:56:57.063Z,11.20
2022-12-25T17:59:31.208Z,11.20
2022-12-25T18:02:01.218Z,11.20
2022-12-25T18:04:31.207Z,11.20
2022-12-25T18:07:02.067Z,11.20
2022-12-25T18:09:32.117Z,11.20
2022-12-25T18:12:02.176Z,11.20
2022-12-25T18:14:32.550Z,11.20
2022-12-25T18:17:02.555Z,11.20
2022-12-25T18:19:33.013Z,11.20
2022-12-25T18:22:03.187Z,11.10
2022-12-25T18:24:33.156Z,11.20
2022-12-25T18:27:02.983Z,11.10
2022-12-25T18:29:32.819Z,11.10
2022-12-25T18:32:02.903Z,10.90
2022-12-25T18:34:32.785Z,10.80
2022-12-25T18:37:04.696Z,10.80
2022-12-25T18:39:35.494Z,10.80
2022-12-25T18:42:20.009Z,10.70
2022-12-25T18:44:49.875Z,10.70
2022-12-25T18:47:19.753Z,10.70
2022-12-25T18:49:50.221Z,10.60
2022-12-25T18:52:49.174Z,10.60
2022-12-25T18:55:10.786Z,10.60
2022-12-25T18:57:42.346Z,10.60
2022-12-25T19:00:12.720Z,10.60
2022-12-25T19:02:42.827Z,10.70
2022-12-25T19:05:12.920Z,10.60
2022-12-25T19:07:43.205Z,10.70
2022-12-25T19:10:13.209Z,10.80
2022-12-25T19:12:43.114Z,10.70
2022-12-25T19:15:13.772Z,10.70
2022-12-25T19:17:43.672Z,10.70
2022-12-25T19:20:14.216Z,10.60
2022-12-25T19:22:44.035Z,10.60
2022-12-25T19:25:14.418Z,10.70
2022-12-25T19:27:44.463Z,10.60
2022-12-25T19:30:15.362Z,10.60
2022-12-25T19:32:45.240Z,10.50
2022-12-25T19:35:15.236Z,10.50
2022-12-25T19:37:45.142Z,10.50
2022-12-25T19:40:15.070Z,10.40
2022-12-25T19:42:44.992Z,10.40
2022-12-25T19:45:15.019Z,10.30
2022-12-25T19:47:45.916Z,10.40
2022-12-25T19:50:15.837Z,10.40
2022-12-25T19:52:46.204Z,10.40
2022-12-25T19:55:16.153Z,10.40
2022-12-25T19:57:46.075Z,10.40
2022-12-25T20:00:16.524Z,10.40
2022-12-25T20:02:46.445Z,10.40
2022-12-25T20:05:16.348Z,10.50
2022-12-25T20:07:46.312Z,10.50
2022-12-25T20:10:16.143Z,10.50
2022-12-25T20:12:46.108Z,10.50
2022-12-25T20:15:16.008Z,10.50
2022-12-25T20:17:45.841Z,10.60
2022-12-25T20:20:16.336Z,10.60
2022-12-25T20:22:46.282Z,10.50
2022-12-25T20:25:16.169Z,10.50
2022-12-25T20:27:46.195Z,10.30
2022-12-25T20:30:16.625Z,10.20
2022-12-25T20:32:50.311Z,10.20
2022-12-25T20:35:20.872Z,10.20
2022-12-25T20:37:50.769Z,10.10
2022-12-25T20:40:20.842Z,10.00
2022-12-25T20:42:50.769Z,10.00
2022-12-25T20:45:20.650Z,9.90
2022-12-25T20:47:50.506Z,9.90
2022-12-25T20:50:20.562Z,10.00
2022-12-25T20:52:50.452Z,10.00
2022-12-25T20:55:20.355Z,10.00
2022-12-25T20:57:50.377Z,10.00
2022-12-25T21:00:20.335Z,10.00
2022-12-25T21:02:50.450Z,10.00
2022-12-25T21:05:20.553Z,10.00
2022-12-25T21:07:50.392Z,10.00
2022-12-25T21:10:20.418Z,10.00
2022-12-25T21:12:50.293Z,10.00
2022-12-25T21:15:20.290Z,10.00
2022-12-25T21:17:50.102Z,10.00
2022-12-25T21:20:20.027Z,10.00
2022-12-25T21:22:49.814Z,10.00
2022-12-25T21:25:19.739Z,10.00
2022-12-25T21:27:49.555Z,10.00
2022-12-25T21:30:19.468Z,10.00
2022-12-25T21:33:00.307Z,10.00
2022-12-25T21:35:29.526Z,10.00
2022-12-25T21:37:59.416Z,10.10
2022-12-25T21:40:29.365Z,10.10
2022-12-25T21:42:59.297Z,10.10
2022-12-25T21:45:29.680Z,10.20
2022-12-25T21:48:02.996Z,10.20
2022-12-25T21:50:51.242Z,10.10
2022-12-25T21:53:22.577Z,10.20
2022-12-25T21:56:02.516Z,10.20
2022-12-25T21:58:32.591Z,10.20
2022-12-25T22:01:06.276Z,10.20
2022-12-25T22:03:36.429Z,10.20
2022-12-25T22:06:22.187Z,10.20
2022-12-25T22:08:52.231Z,10.20
2022-12-25T22:11:32.550Z,10.30
2022-12-25T22:14:12.826Z,10.30
2022-12-25T22:16:52.861Z,10.20
2022-12-25T22:19:33.097Z,10.20
2022-12-25T22:22:02.925Z,10.20
2022-12-25T22:24:32.881Z,10.20
2022-12-25T22:27:02.840Z,10.10
2022-12-25T22:29:32.671Z,10.10
2022-12-25T22:32:02.666Z,10.20
2022-12-25T22:34:32.670Z,10.10
2022-12-25T22:37:02.839Z,10.00
2022-12-25T22:39:34.198Z,10.00
2022-12-25T22:42:04.671Z,10.00
2022-12-25T22:44:35.323Z,10.00
2022-12-25T22:47:05.916Z,10.00
2022-12-25T22:49:35.988Z,10.00
2022-12-25T22:52:05.971Z,10.00
2022-12-25T22:54:35.831Z,10.00
2022-12-25T22:57:05.809Z,10.00
2022-12-25T22:59:36.132Z,10.00
2022-12-25T23:02:06.155Z,10.00
2022-12-25T23:04:36.469Z,10.10
2022-12-25T23:07:06.310Z,10.10
2022-12-25T23:09:37.147Z,10.00
2022-12-25T23:12:06.517Z,10.00
2022-12-25T23:14:43.520Z,10.00
2022-12-25T23:17:26.542Z,10.00
2022-12-25T23:20:06.762Z,10.10
2022-12-25T23:22:46.845Z,10.10
2022-12-25T23:25:37.073Z,10.10
2022-12-25T23:28:07.031Z,10.00
2022-12-25T23:30:36.805Z,10.10
2022-12-25T23:33:07.010Z,10.00
2022-12-25T23:35:36.873Z,10.10
2022-12-25T23:38:06.788Z,10.10
2022-12-25T23:40:36.775Z,10.10
2022-12-25T23:43:06.719Z,10.20
2022-12-25T23:45:36.516Z,10.30
2022-12-25T23:48:06.547Z,10.20
2022-12-25T23:50:36.862Z,10.20
2022-12-25T23:53:06.710Z,10.20
2022-12-25T23:55:36.992Z,10.10
2022-12-25T23:58:07.112Z,10.20
